Nearby METAR Reports

 

LGTS - THESALONIKI, GR
Distance from station: 85km
: 19/01/2019 02:50
Few Clouds
Few Clouds
   varies
: varies 6 km/h
: 3°C
: 1°C
: 87%
: 1018 hPa
Clouds: Few Clouds
Visibility: 10 km
Cloud details: Few Clouds 549 m
2019/01/19 00:50 LGTS 190050Z VRB03KT 9999 FEW018 03/01 Q1018 NOSIG
LGAV - ATHENS, GR
Distance from station: 546km
: 19/01/2019 02:50

   calm
:
: 4°C
: 1°C
: 81%
: 1019 hPa
:
Visibility: greater than 10 km
2019/01/19 00:50 LGAV 190050Z 00000KT CAVOK 04/01 Q1019 NOSIG
 
LGKZ - KOZANI, GR
Distance from station: 130km
: 18/01/2019 13:50
NOT Current

   calm
:
: 7°C
: -4°C
: 46%
: 1016 hPa
Clouds:
Visibility: 10 km
Cloud details: 2134 m
2019/01/18 11:50 LGKZ 181150Z 00000KT 9999 SCT070 07/M04 Q1016
LGIO - IOANNINA, GR
Distance from station: 265km
: 18/01/2019 21:20
NOT Current
 ,
,
   varies
: varies 0 km/h
: 6°C
: 5°C
: 93%
: 1017 hPa
:
Clouds:
Visibility: 10 km
Cloud details: 762 m
2134 m
2019/01/18 19:20 LGIO 181920Z /////KT 9999 -RA BKN025 OVC070 06/05 Q1017
 
LGKV - KABALA, GR
Distance from station: 220km
: 18/01/2019 20:50
NOT Current
Few Clouds
Few Clouds
   calm
:
: 6°C
: 5°C
: 93%
: 1017 hPa
Clouds: Few Clouds
Visibility: 7 km
Cloud details: Few Clouds 244 m
2019/01/18 18:50 LGKV 181850Z 00000KT 7000 FEW008 06/05 Q1017
LGAL - ALEXANDROUPOLI, GR
Distance from station: 367km
: 18/01/2019 21:20
NOT Current
Few Clouds
Few Clouds
   calm
:
: 6°C
: 5°C
: 93%
: 1017 hPa
Clouds: Few Clouds
Visibility: 10 km
Cloud details: Few Clouds 610 m
2019/01/18 19:20 LGAL 181920Z 00000KT 9999 FEW020 06/05 Q1017
 
LGSA - CHANIA,CRETE, GR
Distance from station: 866km
: 19/01/2019 02:50
Few Clouds
Few Clouds
   calm
:
: 7°C
: 5°C
: 87%
: 1019 hPa
Clouds: Few Clouds
Visibility: 10 km
Cloud details: Few Clouds 762 m
2019/01/19 00:50 LGSA 190050Z 00000KT 9999 FEW025 07/05 Q1019
LGIR - HERAKLIO, CRETE, GR
Distance from station: 882km
: 19/01/2019 02:50
Few Clouds
Few Clouds

: 19 km/h
: 10°C
Wind Chill: 7°C
: 6°C
: 76%
: 1019 hPa
Clouds: Few Clouds
Visibility: 10 km
Cloud details: Few Clouds 762 m
2019/01/19 00:50 LGIR 190050Z 17010KT 9999 FEW025 10/06 Q1019 NOSIG
 
LGRP - RHODES, GR
Distance from station: 1.318km
: 19/01/2019 02:50

   varies
: varies 2 km/h
: 10°C
: 8°C
: 88%
: 1020 hPa
Clouds:
Visibility: 10 km
Cloud details: 610 m
2019/01/19 00:50 LGRP 190050Z VRB01KT 9999 SCT020 10/08 Q1020 NOSIG
LGLR - LARISSA, GR
Distance from station: 182km
: 19/01/2019 02:50

   calm
:
: 3°C
: 2°C
: 93%
: 1017 hPa
Clouds:
Visibility: 10 km
Cloud details: Few Clouds 914 m
2438 m
2019/01/19 00:50 LGLR 190050Z 00000KT 9999 FEW030 SCT080 03/02 Q1017 RMK BKN180 BLU